createdAt,value
2019-01-06T00:00:14.654Z,12.37
2019-01-06T00:03:14.664Z,14.40
2019-01-06T00:05:59.659Z,16.67
2019-01-06T00:08:42.062Z,20.03
2019-01-06T00:14:35.744Z,24.23
2019-01-06T00:17:18.011Z,28.33
2019-01-06T00:22:56.114Z,36.67
2019-01-06T00:25:38.213Z,39.67
2019-01-06T00:28:21.188Z,44.67
2019-01-06T00:31:04.189Z,48.60
2019-01-06T00:34:03.755Z,52.97
2019-01-06T00:37:03.652Z,60.00
2019-01-06T00:40:03.329Z,64.90
2019-01-06T00:42:45.352Z,70.30
2019-01-06T00:45:45.625Z,74.10
2019-01-06T00:48:45.700Z,80.80
2019-01-06T00:51:45.149Z,85.67
2019-01-06T00:57:39.428Z,96.17
2019-01-06T01:00:39.144Z,97.07
2019-01-06T01:03:38.933Z,104.40
2019-01-06T01:06:38.437Z,107.30
2019-01-06T01:12:45.527Z,115.77
2019-01-06T01:15:30.480Z,121.17
2019-01-06T01:21:06.805Z,127.60
2019-01-06T01:23:48.714Z,128.40
2019-01-06T01:26:48.734Z,135.20
2019-01-06T01:29:33.821Z,138.13
2019-01-06T01:32:19.045Z,144.47
2019-01-06T01:35:19.277Z,145.60
2019-01-06T01:38:18.656Z,152.63
2019-01-06T01:41:01.056Z,152.57
2019-01-06T01:44:01.296Z,154.53
2019-01-06T01:46:43.845Z,162.73
2019-01-06T01:49:44.112Z,166.77
2019-01-06T01:52:43.863Z,168.17
2019-01-06T01:55:43.569Z,179.90
2019-01-06T01:58:43.085Z,181.27
2019-01-06T02:01:25.180Z,186.07
2019-01-06T02:04:09.748Z,193.13
2019-01-06T02:09:46.899Z,198.37
2019-01-06T02:15:26.160Z,208.53
2019-01-06T02:35:47.341Z,233.13
2019-01-06T02:41:48.981Z,240.87
2019-01-06T02:44:56.060Z,235.70
2019-01-06T02:53:59.708Z,248.43
2019-01-06T02:57:06.553Z,257.30
2019-01-06T03:00:13.424Z,255.20
2019-01-06T03:06:19.028Z,264.27
2019-01-06T03:12:34.340Z,259.30
2019-01-06T03:18:49.865Z,262.20
2019-01-06T03:21:56.720Z,262.02
2019-01-06T03:25:03.593Z,265.10
2019-01-06T03:28:10.462Z,266.45
2019-01-06T03:31:17.310Z,261.65
2019-01-06T03:34:24.198Z,261.67
2019-01-06T03:37:24.005Z,262.80
2019-01-06T03:40:23.520Z,251.70
2019-01-06T03:43:05.998Z,254.53
2019-01-06T03:49:12.220Z,253.88
2019-01-06T04:00:54.422Z,250.30
2019-01-06T04:03:36.827Z,246.47
2019-01-06T04:06:36.997Z,247.05
2019-01-06T04:12:27.412Z,248.77
2019-01-06T04:15:26.754Z,249.47
2019-01-06T04:18:11.524Z,242.50
2019-01-06T04:21:11.221Z,237.73
2019-01-06T04:23:53.360Z,237.00
2019-01-06T04:26:53.361Z,236.77
2019-01-06T04:29:53.601Z,231.70
2019-01-06T04:32:53.923Z,229.63
2019-01-06T04:35:53.669Z,227.93
2019-01-06T04:38:53.348Z,223.80
2019-01-06T04:41:53.433Z,222.57
2019-01-06T04:47:48.281Z,213.57
2019-01-06T04:57:00.916Z,204.47
2019-01-06T05:00:00.561Z,201.77
2019-01-06T05:02:43.326Z,202.37
2019-01-06T05:05:43.033Z,199.43
2019-01-06T05:08:42.685Z,196.17
2019-01-06T05:11:42.544Z,186.70
2019-01-06T05:14:25.353Z,182.90
2019-01-06T05:17:07.543Z,180.33
2019-01-06T05:25:54.833Z,176.80
2019-01-06T05:28:39.755Z,169.20
2019-01-06T05:34:33.038Z,160.55
2019-01-06T05:37:33.474Z,160.00
2019-01-06T05:40:33.662Z,159.93
2019-01-06T05:49:46.500Z,151.80
2019-01-06T05:52:31.450Z,151.50
2019-01-06T05:58:39.253Z,141.57
2019-01-06T06:01:23.191Z,142.63
2019-01-06T06:04:05.226Z,139.57
2019-01-06T06:06:47.138Z,139.23
2019-01-06T06:09:29.229Z,133.30
2019-01-06T06:12:28.729Z,131.77
2019-01-06T06:18:05.858Z,127.00
2019-01-06T06:20:48.522Z,121.33
2019-01-06T06:23:30.522Z,122.87
2019-01-06T06:26:13.631Z,120.70
2019-01-06T06:35:13.777Z,112.30
2019-01-06T06:38:20.625Z,109.83
2019-01-06T06:41:27.560Z,110.67
2019-01-06T06:44:34.416Z,102.90
2019-01-06T06:50:40.200Z,99.67
2019-01-06T06:53:47.289Z,101.60
2019-01-06T06:56:54.173Z,100.63
2019-01-06T07:00:02.639Z,97.27
2019-01-06T07:06:04.349Z,90.40
2019-01-06T07:09:11.206Z,87.80
2019-01-06T07:12:18.078Z,89.63
2019-01-06T07:15:25.109Z,85.03
2019-01-06T07:18:31.996Z,85.23
2019-01-06T07:21:38.916Z,80.13
2019-01-06T07:24:46.084Z,79.20
2019-01-06T07:27:28.444Z,79.77
2019-01-06T07:36:11.969Z,70.90
2019-01-06T07:39:11.905Z,71.20
2019-01-06T07:45:01.873Z,67.53
2019-01-06T07:50:54.957Z,64.90
2019-01-06T07:53:55.095Z,61.47
2019-01-06T07:59:48.608Z,59.03
2019-01-06T08:02:34.025Z,58.77
2019-01-06T08:05:33.726Z,56.47
2019-01-06T08:11:29.789Z,53.40
2019-01-06T08:20:33.102Z,50.37
2019-01-06T08:23:33.353Z,48.33
2019-01-06T08:26:33.880Z,47.73
2019-01-06T08:29:34.145Z,47.80
2019-01-06T08:32:19.459Z,47.87
2019-01-06T08:35:18.991Z,45.47
2019-01-06T08:38:18.518Z,43.77
2019-01-06T08:41:18.632Z,42.30
2019-01-06T08:46:55.618Z,40.27
2019-01-06T08:49:55.849Z,40.53
2019-01-06T08:59:09.597Z,36.17
2019-01-06T09:02:09.453Z,35.53
2019-01-06T09:04:51.441Z,31.80
2019-01-06T09:07:36.040Z,32.60
2019-01-06T09:13:23.388Z,31.43
2019-01-06T09:16:23.650Z,29.87
2019-01-06T09:22:31.441Z,26.80
2019-01-06T09:28:48.675Z,24.30
2019-01-06T09:31:30.873Z,23.30
2019-01-06T09:37:34.688Z,20.77
2019-01-06T09:43:26.930Z,18.50
2019-01-06T09:49:14.800Z,16.57
2019-01-06T09:51:56.749Z,16.03
2019-01-06T10:07:03.573Z,14.87
2019-01-06T10:10:02.998Z,14.23
2019-01-06T10:13:02.772Z,13.50
2019-01-06T10:16:02.223Z,13.03
2019-01-06T10:19:02.536Z,12.90
2019-01-06T10:22:02.907Z,12.50
2019-01-06T10:31:18.560Z,11.70
2019-01-06T10:34:18.684Z,11.87
2019-01-06T10:37:01.620Z,11.70
2019-01-06T10:40:01.678Z,11.67
2019-01-06T10:51:58.095Z,11.27
2019-01-06T10:54:40.260Z,10.57
2019-01-06T11:03:20.943Z,9.30
2019-01-06T11:09:09.404Z,8.03
2019-01-06T11:12:09.605Z,8.20
2019-01-06T11:14:54.404Z,8.65
2019-01-06T11:20:59.216Z,8.93
2019-01-06T11:23:59.184Z,7.72
2019-01-06T11:26:43.948Z,7.33
2019-01-06T11:39:10.665Z,7.15
2019-01-06T11:41:53.104Z,7.50
2019-01-06T11:44:33.553Z,6.80
2019-01-06T11:47:58.668Z,6.50
2019-01-06T11:54:29.706Z,6.85
2019-01-06T11:57:36.542Z,6.67
2019-01-06T12:03:37.837Z,6.03
2019-01-06T12:06:44.696Z,6.33
2019-01-06T12:09:51.594Z,5.92
2019-01-06T12:12:58.486Z,5.90
2019-01-06T12:16:05.570Z,7.00
2019-01-06T12:19:12.438Z,6.33
2019-01-06T12:21:59.866Z,5.97
2019-01-06T12:25:06.754Z,7.03
2019-01-06T12:31:12.026Z,7.33
2019-01-06T12:34:19.195Z,6.73
2019-01-06T12:37:26.120Z,6.70
2019-01-06T12:40:08.736Z,7.33
2019-01-06T12:43:08.144Z,7.12
2019-01-06T12:45:53.043Z,6.70
2019-01-06T12:48:52.681Z,6.72
2019-01-06T12:51:52.580Z,6.25
2019-01-06T12:54:37.280Z,7.37
2019-01-06T13:00:16.964Z,6.70
2019-01-06T13:03:16.417Z,5.80
2019-01-06T13:05:58.273Z,5.53
2019-01-06T13:11:34.189Z,7.00
2019-01-06T13:14:34.523Z,6.03
2019-01-06T13:17:34.234Z,6.35
2019-01-06T13:20:19.498Z,6.73
2019-01-06T13:23:00.234Z,6.90
2019-01-06T13:26:00.638Z,6.50
2019-01-06T13:28:42.956Z,6.83
2019-01-06T13:31:43.210Z,6.83
2019-01-06T13:34:25.591Z,6.93
2019-01-06T13:40:01.064Z,7.00
2019-01-06T13:43:00.653Z,6.70
2019-01-06T13:45:43.184Z,6.87
2019-01-06T13:51:34.009Z,5.60
2019-01-06T13:54:19.899Z,6.17
2019-01-06T14:03:32.398Z,6.65
2019-01-06T14:06:31.973Z,6.77
2019-01-06T14:21:55.856Z,6.13
2019-01-06T14:24:42.070Z,6.70
2019-01-06T14:27:20.938Z,7.10
2019-01-06T14:29:53.790Z,6.47
2019-01-06T14:32:26.679Z,7.33
2019-01-06T14:35:05.496Z,6.73
2019-01-06T14:37:38.314Z,6.20
2019-01-06T14:40:11.225Z,6.95
2019-01-06T14:42:52.892Z,6.47
2019-01-06T14:45:37.920Z,6.97
2019-01-06T14:48:10.784Z,6.42
2019-01-06T14:50:43.370Z,7.10
2019-01-06T14:53:29.742Z,7.03
2019-01-06T14:56:15.758Z,7.67
2019-01-06T14:58:45.635Z,7.15
2019-01-06T15:01:31.580Z,7.28
2019-01-06T15:04:13.451Z,6.97
2019-01-06T15:06:43.310Z,7.05
2019-01-06T15:09:24.720Z,6.92
2019-01-06T15:12:10.569Z,7.87
2019-01-06T15:14:56.892Z,7.17
2019-01-06T15:17:36.005Z,7.08
2019-01-06T15:20:09.268Z,7.03
2019-01-06T15:22:51.199Z,7.22
2019-01-06T15:25:24.120Z,14.47
2019-01-06T15:27:56.696Z,6.78
2019-01-06T15:30:26.788Z,7.35
2019-01-06T15:33:05.147Z,6.60
2019-01-06T15:35:35.049Z,6.67
2019-01-06T15:38:10.804Z,6.70
2019-01-06T15:40:56.664Z,6.12
2019-01-06T15:43:42.868Z,6.33
2019-01-06T15:46:21.558Z,6.72
2019-01-06T15:49:06.173Z,6.80
2019-01-06T15:51:52.338Z,6.08
2019-01-06T15:54:25.151Z,6.00
2019-01-06T15:57:11.047Z,5.87
2019-01-06T15:59:40.907Z,6.03
2019-01-06T16:02:16.429Z,6.20
2019-01-06T16:04:52.303Z,5.93
2019-01-06T16:07:38.247Z,6.47
2019-01-06T16:10:14.564Z,5.80
2019-01-06T16:13:00.620Z,5.93
2019-01-06T16:15:36.601Z,5.87
2019-01-06T16:18:06.752Z,6.43
2019-01-06T16:20:48.543Z,5.77
2019-01-06T16:23:36.429Z,5.65
2019-01-06T16:26:12.373Z,6.58
2019-01-06T16:28:54.374Z,6.77
2019-01-06T16:31:33.271Z,5.87
2019-01-06T16:34:18.242Z,5.80
2019-01-06T16:36:53.707Z,5.85
2019-01-06T16:39:39.627Z,6.62
2019-01-06T16:42:25.920Z,7.67
2019-01-06T16:44:58.342Z,6.50
2019-01-06T16:47:28.294Z,6.30
2019-01-06T16:49:58.274Z,6.17
2019-01-06T16:52:36.955Z,6.23
2019-01-06T16:55:09.551Z,5.23
2019-01-06T16:57:42.413Z,6.07
2019-01-06T17:00:21.199Z,7.03
2019-01-06T17:02:51.128Z,5.90
2019-01-06T17:05:30.132Z,6.03
2019-01-06T17:08:02.715Z,6.13
2019-01-06T17:10:44.692Z,6.67
2019-01-06T17:13:23.283Z,6.30
2019-01-06T17:16:09.306Z,5.77
2019-01-06T17:18:39.182Z,6.00
2019-01-06T17:21:25.477Z,5.60
2019-01-06T17:24:11.682Z,5.63
2019-01-06T17:26:51.023Z,6.03
2019-01-06T17:29:37.339Z,5.53
2019-01-06T17:32:23.466Z,5.00
2019-01-06T17:35:09.611Z,5.83
2019-01-06T17:37:42.297Z,5.53
2019-01-06T17:40:12.166Z,5.17
2019-01-06T17:42:53.827Z,5.63
2019-01-06T17:45:41.555Z,5.23
2019-01-06T17:48:26.360Z,5.10
2019-01-06T17:51:07.872Z,4.60
2019-01-06T17:53:46.307Z,5.30
2019-01-06T17:56:16.423Z,4.60
2019-01-06T17:59:01.128Z,4.77
2019-01-06T18:01:47.020Z,4.67
2019-01-06T18:04:33.196Z,4.93
2019-01-06T18:07:18.159Z,4.87
2019-01-06T18:10:06.378Z,4.63
2019-01-06T18:12:36.295Z,4.57
2019-01-06T18:15:09.221Z,4.57
2019-01-06T18:17:55.116Z,4.60
2019-01-06T18:20:30.985Z,4.23
2019-01-06T18:23:17.205Z,4.50
2019-01-06T18:25:56.241Z,3.83
2019-01-06T18:28:26.088Z,3.90
2019-01-06T18:30:55.968Z,3.97
2019-01-06T18:33:42.408Z,4.40
2019-01-06T18:36:24.122Z,4.17
2019-01-06T18:39:10.729Z,3.57
2019-01-06T18:41:57.198Z,3.80
2019-01-06T18:44:27.095Z,4.00
2019-01-06T18:47:13.224Z,3.40
2019-01-06T18:49:43.113Z,3.87
2019-01-06T18:52:12.998Z,4.13
2019-01-06T18:54:59.307Z,2.93
2019-01-06T18:57:29.251Z,3.33
2019-01-06T19:00:15.088Z,3.50
2019-01-06T19:02:51.010Z,3.90
2019-01-06T19:05:32.685Z,4.07
2019-01-06T19:08:19.133Z,3.40
2019-01-06T19:10:51.924Z,3.80
2019-01-06T19:13:21.911Z,3.50
2019-01-06T19:15:51.886Z,3.70
2019-01-06T19:18:38.028Z,3.43
2019-01-06T19:21:11.533Z,3.60
2019-01-06T19:23:59.537Z,3.47
2019-01-06T19:26:41.486Z,3.20
2019-01-06T19:29:14.084Z,3.33
2019-01-06T19:31:52.855Z,3.23
2019-01-06T19:34:31.492Z,3.60
2019-01-06T19:37:17.419Z,3.30
2019-01-06T19:39:47.319Z,3.17
2019-01-06T19:42:35.124Z,3.23
2019-01-06T19:45:05.133Z,3.53
2019-01-06T19:47:53.209Z,2.73
2019-01-06T19:50:39.122Z,3.87
2019-01-06T19:53:25.331Z,3.13
2019-01-06T19:55:56.065Z,2.93
2019-01-06T19:58:42.209Z,3.20
2019-01-06T20:01:18.410Z,3.43
2019-01-06T20:04:04.539Z,3.30
2019-01-06T20:06:40.493Z,3.27
2019-01-06T20:09:26.436Z,2.80
2019-01-06T20:12:12.626Z,3.33
2019-01-06T20:14:42.492Z,3.20
2019-01-06T20:17:18.541Z,3.00
2019-01-06T20:19:54.534Z,2.63
2019-01-06T20:22:30.611Z,3.30
2019-01-06T20:25:09.776Z,3.00
2019-01-06T20:27:54.710Z,2.80
2019-01-06T20:30:36.281Z,2.57
2019-01-06T20:33:21.420Z,3.03
2019-01-06T20:35:51.344Z,2.93
2019-01-06T20:38:23.718Z,2.70
2019-01-06T20:40:59.404Z,2.87
2019-01-06T20:43:29.256Z,2.80
2019-01-06T20:46:15.424Z,2.77
2019-01-06T20:48:48.275Z,2.40
2019-01-06T20:51:24.321Z,2.90
2019-01-06T20:54:03.468Z,2.50
2019-01-06T20:56:33.328Z,2.50
2019-01-06T20:59:03.630Z,2.57
2019-01-06T21:01:33.488Z,2.60
2019-01-06T21:04:19.383Z,2.50
2019-01-06T21:07:01.357Z,2.73
2019-01-06T21:09:47.256Z,2.63
2019-01-06T21:12:32.233Z,2.93
2019-01-06T21:15:18.044Z,2.80
2019-01-06T21:17:47.912Z,2.80
2019-01-06T21:20:29.574Z,2.57
2019-01-06T21:22:59.473Z,2.30
2019-01-06T21:25:29.360Z,2.83
2019-01-06T21:28:08.012Z,2.67
2019-01-06T21:30:52.776Z,2.60
2019-01-06T21:33:38.891Z,2.40
2019-01-06T21:36:14.931Z,2.30
2019-01-06T21:38:50.388Z,2.70
2019-01-06T21:41:36.489Z,2.70
2019-01-06T21:44:15.064Z,2.37
2019-01-06T21:46:44.921Z,2.53
2019-01-06T21:49:26.527Z,2.50
2019-01-06T21:52:05.170Z,2.23
2019-01-06T21:54:35.054Z,2.10
2019-01-06T21:57:10.916Z,2.67
2019-01-06T21:59:43.715Z,2.37
2019-01-06T22:02:19.590Z,2.50
2019-01-06T22:05:05.869Z,2.83
2019-01-06T22:07:50.831Z,2.27
2019-01-06T22:10:29.642Z,2.53
2019-01-06T22:13:02.187Z,2.43
2019-01-06T22:15:37.724Z,2.40
2019-01-06T22:18:19.066Z,2.33
2019-01-06T22:20:52.376Z,2.13
2019-01-06T22:23:38.256Z,2.63
2019-01-06T22:26:14.183Z,2.30
2019-01-06T22:28:52.917Z,2.37
2019-01-06T22:31:31.960Z,2.30
2019-01-06T22:34:07.732Z,2.63
2019-01-06T22:36:37.888Z,2.57
2019-01-06T22:39:19.489Z,2.40
2019-01-06T22:42:01.308Z,2.10
2019-01-06T22:44:31.180Z,2.33
2019-01-06T22:47:01.080Z,2.20
2019-01-06T22:49:31.032Z,2.20
2019-01-06T22:52:01.005Z,2.03
2019-01-06T22:54:45.929Z,2.07
2019-01-06T22:57:33.591Z,1.90
2019-01-06T23:00:03.576Z,2.17
2019-01-06T23:02:42.203Z,2.50
2019-01-06T23:05:28.049Z,1.90
2019-01-06T23:08:00.944Z,2.20
2019-01-06T23:10:46.821Z,2.10
2019-01-06T23:13:33.068Z,2.17
2019-01-06T23:16:05.907Z,2.30
2019-01-06T23:18:52.172Z,2.17
2019-01-06T23:21:28.272Z,2.37
2019-01-06T23:24:09.992Z,2.10
2019-01-06T23:26:39.864Z,2.33
2019-01-06T23:29:10.231Z,2.03
2019-01-06T23:31:56.669Z,2.00
2019-01-06T23:34:35.480Z,1.93
2019-01-06T23:37:21.588Z,2.00
2019-01-06T23:39:51.525Z,2.00
2019-01-06T23:42:27.323Z,1.93
2019-01-06T23:45:13.253Z,2.00
2019-01-06T23:47:52.125Z,2.17
2019-01-06T23:50:36.988Z,1.97
2019-01-06T23:53:22.993Z,1.90
2019-01-06T23:55:58.680Z,1.90
2019-01-06T23:58:37.255Z,2.30
